Delhi, Iowa
Current Conditions -  °F | °C
As of 8:55 AM on Wednesday 22 Oct 2014 (Local Time) from KMXO Reporting Station
Clear Clear  
Wind Chill: 34°   Ceiling: Unl
Heat Index: 39°   Visibility: 10mi
Dew Point: 39°   Wind: 8mph
Humidity: 100%   Direction: 130°SE
Pressure: 30.32"   Gusts: NA
Location:  42.43°N, 91.33°W
Report Text: KMXO 221355Z AUTO 13007KT 10SM CLR 04/04 A3032 RMK AO2
Loading
Personal Weather Stations






























Interactive Weather Map New forecast layout! Learn more

10-Day Weather Forecast

Advertisements
Track Severe Weather on mobile